Time;durP1;ratioP1;P1;durP2;ratioP2;P2;SDS_P1;SDS_P2;PMS_P1;PMS_P2;Temp;Humidity;BMP_temperature;BMP_pressure;BME280_temperature;BME280_humidity;BME280_pressure;Samples;Min_cycle;Max_cycle;Signal;HPM_P1;HPM_P2
2022/04/24 00:01:55;;;;;;;8.57;7.73;;;8.50;99.90;;;;;;5051952;28;20611;-70
2022/04/24 00:04:43;;;;;;;8.60;7.70;;;8.50;99.90;;;;;;5048336;28;20596;-70
2022/04/24 00:07:31;;;;;;;9.10;7.20;;;8.50;99.90;;;;;;5051258;28;20458;-70
2022/04/24 00:10:20;;;;;;;9.57;8.60;;;8.40;99.90;;;;;;5048153;28;20949;-71
2022/04/24 00:13:11;;;;;;;7.83;7.03;;;8.40;99.90;;;;;;5040900;28;20473;-70
2022/04/24 00:15:59;;;;;;;9.87;7.80;;;8.30;99.90;;;;;;5050172;28;20586;-70
2022/04/24 00:18:47;;;;;;;8.23;7.37;;;8.30;99.90;;;;;;5052092;28;20574;-70
2022/04/24 00:21:36;;;;;;;8.53;7.70;;;8.30;99.90;;;;;;5051614;28;20556;-70
2022/04/24 00:24:25;;;;;;;7.90;7.10;;;8.30;99.90;;;;;;5052443;28;20577;-70
2022/04/24 00:27:13;;;;;;;8.03;7.13;;;8.20;99.90;;;;;;5048346;28;20469;-70
2022/04/24 00:30:03;;;;;;;7.70;6.93;;;8.20;99.90;;;;;;5055478;28;20469;-70
2022/04/24 00:32:51;;;;;;;9.13;8.10;;;8.20;99.90;;;;;;5046244;28;21192;-71
2022/04/24 00:35:39;;;;;;;8.00;7.30;;;8.20;99.90;;;;;;5048968;28;21043;-70
2022/04/24 00:38:27;;;;;;;9.47;7.40;;;8.20;99.90;;;;;;5050326;28;20537;-70
2022/04/24 00:41:15;;;;;;;7.00;6.30;;;8.10;99.90;;;;;;5051473;28;20537;-70
2022/04/24 00:44:04;;;;;;;8.07;7.10;;;8.10;99.90;;;;;;5047981;28;20553;-71
2022/04/24 00:46:58;;;;;;;8.13;7.13;;;8.10;99.90;;;;;;5039577;28;21077;-70
2022/04/24 00:49:47;;;;;;;9.43;7.30;;;8.10;99.90;;;;;;5049084;28;20567;-70
2022/04/24 00:52:35;;;;;;;10.60;7.00;;;8.10;99.90;;;;;;5051642;28;20589;-70
2022/04/24 00:55:27;;;;;;;8.83;6.73;;;8.10;99.90;;;;;;5049170;28;21017;-70
2022/04/24 00:58:16;;;;;;;7.10;6.40;;;8.10;99.90;;;;;;5045337;28;20575;-71
2022/04/24 01:01:04;;;;;;;7.47;6.40;;;8.00;99.90;;;;;;5046122;28;21048;-70
2022/04/24 01:03:59;;;;;;;11.00;7.90;;;8.00;99.90;;;;;;5048471;28;20481;-70
2022/04/24 01:06:48;;;;;;;7.97;7.17;;;8.00;99.90;;;;;;5050926;28;20536;-70
2022/04/24 01:09:36;;;;;;;7.70;6.87;;;8.00;99.90;;;;;;5045221;28;20575;-70
2022/04/24 01:12:24;;;;;;;8.07;7.37;;;7.90;99.90;;;;;;5045452;28;20454;-70
2022/04/24 01:15:12;;;;;;;8.50;7.37;;;7.90;99.90;;;;;;5048480;28;20446;-70
2022/04/24 01:18:01;;;;;;;7.77;7.07;;;7.90;99.90;;;;;;5055771;28;20478;-70
2022/04/24 01:20:51;;;;;;;8.47;7.67;;;7.90;99.90;;;;;;5055386;28;20860;-70
2022/04/24 01:23:39;;;;;;;8.07;6.97;;;7.80;99.90;;;;;;5046346;28;21896;-71
2022/04/24 01:26:27;;;;;;;7.57;6.83;;;7.80;99.90;;;;;;5053655;28;20492;-71
2022/04/24 01:29:16;;;;;;;7.93;7.13;;;7.80;99.90;;;;;;5043017;28;21061;-70
2022/04/24 01:32:06;;;;;;;7.50;6.80;;;7.80;99.90;;;;;;5046294;28;20844;-72
2022/04/24 01:34:54;;;;;;;8.13;6.40;;;7.80;99.90;;;;;;5049380;28;20478;-70
2022/04/24 01:37:45;;;;;;;8.57;7.50;;;7.80;99.90;;;;;;5047077;28;20458;-70
2022/04/24 01:40:33;;;;;;;8.73;6.83;;;7.70;99.90;;;;;;5050080;28;20459;-70
2022/04/24 01:43:21;;;;;;;7.63;6.67;;;7.70;99.90;;;;;;5042522;28;20506;-71
2022/04/24 01:46:11;;;;;;;7.40;6.70;;;7.80;99.90;;;;;;5055129;28;20525;-70
2022/04/24 01:48:59;;;;;;;7.87;6.30;;;7.70;99.90;;;;;;5050355;28;20860;-70
2022/04/24 01:51:48;;;;;;;7.53;5.70;;;7.80;99.90;;;;;;5049368;28;20462;-71
2022/04/24 01:54:38;;;;;;;6.87;5.30;;;7.70;99.90;;;;;;5053541;28;20485;-71
2022/04/24 01:57:26;;;;;;;9.70;6.03;;;7.70;99.90;;;;;;5048818;28;20458;-70
2022/04/24 02:00:15;;;;;;;5.83;5.33;;;7.70;99.90;;;;;;5054438;28;20486;-70
2022/04/24 02:03:03;;;;;;;10.17;7.30;;;7.70;99.90;;;;;;5048591;28;20617;-71
2022/04/24 02:05:52;;;;;;;6.07;5.47;;;7.60;99.90;;;;;;5049815;28;20477;-71
2022/04/24 02:08:40;;;;;;;7.40;5.30;;;7.60;99.90;;;;;;5047909;28;20459;-71
2022/04/24 02:11:30;;;;;;;6.83;6.13;;;7.60;99.90;;;;;;5051889;28;20593;-70
2022/04/24 02:14:18;;;;;;;5.60;5.10;;;7.60;99.90;;;;;;5046634;28;20478;-70
2022/04/24 02:17:06;;;;;;;5.30;4.77;;;7.60;99.90;;;;;;5048864;28;20528;-70
2022/04/24 02:19:54;;;;;;;5.10;4.60;;;7.50;99.90;;;;;;5042273;28;20486;-70
2022/04/24 02:22:42;;;;;;;5.67;4.70;;;7.50;99.90;;;;;;5048533;28;20505;-70
2022/04/24 02:25:32;;;;;;;7.23;5.03;;;7.50;99.90;;;;;;5054125;28;20461;-70
2022/04/24 02:28:21;;;;;;;5.93;4.80;;;7.50;99.90;;;;;;5045999;28;20454;-70
2022/04/24 02:31:09;;;;;;;6.20;5.37;;;7.50;99.90;;;;;;5050357;28;20573;-70
2022/04/24 02:33:58;;;;;;;5.80;4.97;;;7.50;99.90;;;;;;5044351;28;21091;-70
2022/04/24 02:36:46;;;;;;;5.90;5.00;;;7.50;99.90;;;;;;5046590;28;20490;-71
2022/04/24 02:39:35;;;;;;;5.40;4.70;;;7.50;99.90;;;;;;5044100;28;20961;-70
2022/04/24 02:42:23;;;;;;;5.43;4.57;;;7.50;99.90;;;;;;5050594;28;20711;-70
2022/04/24 02:45:13;;;;;;;5.07;4.57;;;7.40;99.90;;;;;;5030916;28;20478;-70
2022/04/24 02:48:02;;;;;;;5.47;4.10;;;7.40;99.90;;;;;;5051541;28;20458;-71
2022/04/24 02:50:50;;;;;;;5.40;4.90;;;7.40;99.90;;;;;;5048678;28;20485;-70
2022/04/24 02:53:38;;;;;;;5.20;4.70;;;7.40;99.90;;;;;;5049039;28;20531;-71
2022/04/24 02:56:26;;;;;;;4.77;4.37;;;7.40;99.90;;;;;;5049250;28;20478;-70
2022/04/24 02:59:15;;;;;;;5.13;4.63;;;7.40;99.90;;;;;;5047824;28;20521;-70
2022/04/24 03:02:05;;;;;;;6.47;5.20;;;7.40;99.90;;;;;;5050245;28;21109;-71
2022/04/24 03:04:53;;;;;;;6.77;4.83;;;7.30;99.90;;;;;;5050109;28;20549;-70
2022/04/24 03:07:42;;;;;;;5.23;4.50;;;7.30;99.90;;;;;;5047825;28;20453;-71
2022/04/24 03:10:30;;;;;;;5.63;4.30;;;7.30;99.90;;;;;;5047694;28;20462;-71
2022/04/24 03:13:18;;;;;;;8.33;4.60;;;7.30;99.90;;;;;;5042554;28;20569;-72
2022/04/24 03:16:06;;;;;;;4.80;4.40;;;7.20;99.90;;;;;;5044719;28;20545;-71
2022/04/24 03:18:57;;;;;;;5.00;4.50;;;7.20;99.90;;;;;;5051408;28;20470;-71
2022/04/24 03:21:45;;;;;;;5.47;4.97;;;7.20;99.90;;;;;;5049578;28;20527;-71
2022/04/24 03:24:34;;;;;;;4.90;4.17;;;7.10;99.90;;;;;;5048500;28;20989;-71
2022/04/24 03:27:22;;;;;;;4.60;4.17;;;7.10;99.90;;;;;;5051512;28;20492;-71
2022/04/24 03:30:11;;;;;;;5.57;4.57;;;7.10;99.90;;;;;;5053242;28;20563;-71
2022/04/24 03:32:59;;;;;;;7.10;4.20;;;7.10;99.90;;;;;;5051729;28;20466;-71
2022/04/24 03:35:48;;;;;;;6.80;4.90;;;7.00;99.90;;;;;;5051587;28;20483;-71
2022/04/24 03:38:37;;;;;;;5.10;4.60;;;7.10;99.90;;;;;;5053045;28;20453;-71
2022/04/24 03:41:26;;;;;;;5.37;4.70;;;7.00;99.90;;;;;;5054646;28;20511;-71
2022/04/24 03:44:14;;;;;;;5.10;4.13;;;7.00;99.90;;;;;;5049291;28;20622;-71
2022/04/24 03:47:02;;;;;;;5.30;4.07;;;6.90;99.90;;;;;;5042699;28;20458;-71
2022/04/24 03:49:51;;;;;;;5.20;4.40;;;6.90;99.90;;;;;;5051224;28;20470;-72
2022/04/24 03:52:40;;;;;;;5.33;4.53;;;6.90;99.90;;;;;;5058385;28;20583;-71
2022/04/24 03:55:29;;;;;;;5.53;5.03;;;6.90;99.90;;;;;;5052201;28;20457;-71
2022/04/24 03:58:17;;;;;;;5.50;4.80;;;6.80;99.90;;;;;;5045561;28;20548;-71
2022/04/24 04:01:05;;;;;;;5.37;4.97;;;6.80;99.90;;;;;;5052999;28;21021;-71
2022/04/24 04:03:53;;;;;;;6.23;5.10;;;6.80;99.90;;;;;;5049340;28;20477;-71
2022/04/24 04:06:42;;;;;;;5.90;5.27;;;6.70;99.90;;;;;;5056865;28;20944;-71
2022/04/24 04:09:31;;;;;;;6.67;5.10;;;6.60;99.90;;;;;;5051970;28;20996;-70
2022/04/24 04:12:19;;;;;;;6.27;5.50;;;6.60;99.90;;;;;;5045205;28;20973;-70
2022/04/24 04:15:08;;;;;;;6.63;5.70;;;6.70;99.90;;;;;;5052234;28;20470;-71
2022/04/24 04:17:57;;;;;;;5.97;5.00;;;6.70;99.90;;;;;;5052937;28;20462;-70
2022/04/24 04:20:45;;;;;;;6.13;5.00;;;6.60;99.90;;;;;;5051071;28;20533;-70
2022/04/24 04:23:33;;;;;;;8.10;5.10;;;6.60;99.90;;;;;;5046574;28;20477;-70
2022/04/24 04:26:24;;;;;;;7.47;4.87;;;6.70;99.90;;;;;;5053991;28;20458;-71
2022/04/24 04:29:12;;;;;;;7.53;6.60;;;6.70;99.90;;;;;;5054974;28;20478;-70
2022/04/24 04:32:02;;;;;;;9.50;5.73;;;6.60;99.90;;;;;;5049267;28;20450;-71
2022/04/24 04:34:50;;;;;;;7.63;5.60;;;6.70;99.90;;;;;;5047896;28;20841;-71
2022/04/24 04:37:39;;;;;;;6.70;5.47;;;6.70;99.90;;;;;;5051442;28;20459;-71
2022/04/24 04:40:27;;;;;;;8.57;5.70;;;6.70;99.90;;;;;;5047606;28;20474;-71
2022/04/24 04:43:18;;;;;;;8.37;6.30;;;6.70;99.90;;;;;;5048218;28;20515;-71
2022/04/24 04:46:06;;;;;;;8.10;5.93;;;6.70;99.90;;;;;;5051823;28;20499;-71
2022/04/24 04:48:54;;;;;;;9.30;6.87;;;6.70;99.90;;;;;;5048417;28;20548;-71
2022/04/24 04:51:42;;;;;;;8.23;6.43;;;6.80;99.90;;;;;;5046378;28;20477;-71
2022/04/24 04:54:30;;;;;;;8.07;6.70;;;6.70;99.90;;;;;;5049677;28;20506;-71
2022/04/24 04:57:18;;;;;;;11.13;7.60;;;6.80;99.90;;;;;;5048930;28;20465;-71
2022/04/24 05:00:11;;;;;;;9.97;7.30;;;6.80;99.90;;;;;;5051011;28;20523;-71
2022/04/24 05:02:59;;;;;;;10.87;7.10;;;6.80;99.90;;;;;;5045943;28;20481;-71
2022/04/24 05:05:47;;;;;;;11.87;8.50;;;6.90;99.90;;;;;;5050227;28;20509;-71
2022/04/24 05:08:35;;;;;;;7.47;6.67;;;6.90;99.90;;;;;;5051837;28;20601;-71
2022/04/24 05:11:28;;;;;;;7.80;6.63;;;7.00;99.90;;;;;;5038547;28;20534;-71
2022/04/24 05:14:16;;;;;;;7.07;6.00;;;7.00;99.90;;;;;;5048376;28;21085;-70
2022/04/24 05:17:06;;;;;;;8.93;6.07;;;7.00;99.90;;;;;;5052694;28;20455;-71
2022/04/24 05:19:54;;;;;;;11.20;7.00;;;7.10;99.90;;;;;;5056893;28;20527;-71
2022/04/24 05:22:42;;;;;;;7.23;5.77;;;7.10;99.90;;;;;;5050682;28;20469;-71
2022/04/24 05:25:30;;;;;;;8.90;6.17;;;7.20;99.90;;;;;;5049537;28;20443;-71
2022/04/24 05:28:19;;;;;;;9.27;6.07;;;7.20;99.90;;;;;;5048867;28;20816;-70
2022/04/24 05:31:07;;;;;;;7.63;5.93;;;7.20;99.90;;;;;;5053376;28;20466;-71
2022/04/24 05:33:56;;;;;;;8.97;5.57;;;7.30;99.90;;;;;;5045459;28;21001;-71
2022/04/24 05:36:44;;;;;;;8.03;6.43;;;7.30;99.90;;;;;;5050095;28;20462;-71
2022/04/24 05:39:33;;;;;;;7.03;5.43;;;7.40;99.90;;;;;;5049793;28;20543;-71
2022/04/24 05:42:21;;;;;;;9.07;5.23;;;7.50;99.90;;;;;;5047362;28;20506;-71
2022/04/24 05:45:14;;;;;;;6.10;4.80;;;7.50;99.90;;;;;;5048809;28;20540;-71
2022/04/24 05:48:02;;;;;;;8.33;5.30;;;7.60;99.90;;;;;;5053697;28;20962;-71
2022/04/24 05:50:52;;;;;;;8.63;5.87;;;7.60;99.90;;;;;;5048482;28;20520;-71
2022/04/24 05:53:40;;;;;;;8.70;5.50;;;7.70;99.90;;;;;;5053160;28;20478;-71
2022/04/24 05:56:30;;;;;;;8.10;5.53;;;7.70;99.90;;;;;;5042337;28;20859;-71
2022/04/24 05:59:19;;;;;;;7.40;5.70;;;7.80;99.90;;;;;;5039420;28;21012;-69
2022/04/24 06:02:07;;;;;;;6.10;5.00;;;7.80;99.90;;;;;;5038984;28;20700;-71
2022/04/24 06:04:56;;;;;;;6.93;5.37;;;7.90;99.90;;;;;;5037602;28;20851;-70
2022/04/24 06:07:45;;;;;;;6.83;5.40;;;7.90;99.90;;;;;;5039668;28;20673;-70
2022/04/24 06:10:35;;;;;;;7.67;5.63;;;8.00;99.90;;;;;;5037920;28;20562;-69
2022/04/24 06:13:24;;;;;;;8.10;5.93;;;8.00;99.90;;;;;;5035916;28;21041;-71
2022/04/24 06:16:12;;;;;;;6.60;5.03;;;8.00;99.90;;;;;;5042961;28;20511;-69
2022/04/24 06:19:00;;;;;;;7.40;4.83;;;8.10;99.90;;;;;;5038026;28;20462;-70
2022/04/24 06:21:48;;;;;;;8.50;4.90;;;8.20;99.90;;;;;;5036671;28;20688;-70
2022/04/24 06:24:38;;;;;;;5.37;4.87;;;8.20;99.90;;;;;;5039349;28;20583;-70
2022/04/24 06:27:26;;;;;;;6.23;4.30;;;8.30;99.90;;;;;;5033703;28;20944;-71
2022/04/24 06:30:16;;;;;;;5.60;4.40;;;8.40;99.90;;;;;;5030494;28;20623;-70
2022/04/24 06:33:08;;;;;;;5.97;5.30;;;8.40;99.90;;;;;;5030394;28;20486;-69
2022/04/24 06:35:56;;;;;;;6.60;4.10;;;8.50;99.90;;;;;;5038358;28;20458;-70
2022/04/24 06:38:44;;;;;;;5.53;5.00;;;8.50;99.90;;;;;;5038774;28;20499;-70
2022/04/24 06:41:34;;;;;;;5.40;4.90;;;8.50;99.90;;;;;;5034946;28;20486;-69
2022/04/24 06:44:24;;;;;;;5.00;4.30;;;8.60;99.90;;;;;;5043329;28;20553;-70
2022/04/24 06:47:12;;;;;;;7.63;4.67;;;8.70;99.90;;;;;;5036396;28;20455;-70
2022/04/24 06:50:00;;;;;;;5.40;4.40;;;8.70;99.90;;;;;;5035902;28;20536;-70
2022/04/24 06:52:56;;;;;;;5.80;4.40;;;8.80;99.90;;;;;;5037988;28;20489;-70
2022/04/24 06:55:45;;;;;;;4.60;4.20;;;8.90;99.90;;;;;;5035323;28;20540;-70
2022/04/24 06:58:35;;;;;;;6.20;5.17;;;9.00;99.90;;;;;;5030592;28;20899;-71
2022/04/24 07:01:30;;;;;;;6.60;4.30;;;9.00;99.90;;;;;;5042977;28;21048;-70
2022/04/24 07:04:18;;;;;;;5.20;4.63;;;9.10;99.90;;;;;;5028282;28;21017;-70
2022/04/24 07:07:06;;;;;;;7.20;4.60;;;9.10;99.90;;;;;;5032063;28;20997;-69
2022/04/24 07:09:55;;;;;;;5.17;3.97;;;9.20;99.90;;;;;;5030862;28;20838;-71
2022/04/24 07:12:47;;;;;;;5.60;4.57;;;9.20;99.90;;;;;;5041299;28;20505;-71
2022/04/24 07:15:38;;;;;;;4.93;4.20;;;9.30;99.90;;;;;;5038020;28;20604;-71
2022/04/24 07:18:28;;;;;;;5.50;4.60;;;9.40;99.90;;;;;;5041074;28;20631;-71
2022/04/24 07:21:17;;;;;;;7.07;4.00;;;9.40;99.90;;;;;;5043650;28;21080;-71
2022/04/24 07:24:06;;;;;;;4.17;3.77;;;9.50;99.90;;;;;;5034016;28;20471;-71
2022/04/24 07:26:54;;;;;;;5.07;4.00;;;9.60;99.90;;;;;;5033628;28;20454;-71
2022/04/24 07:29:42;;;;;;;4.50;4.10;;;9.60;99.90;;;;;;5025160;28;20990;-70
2022/04/24 07:32:40;;;;;;;4.67;4.10;;;9.70;99.90;;;;;;5034403;28;20547;-71
2022/04/24 07:35:29;;;;;;;4.40;4.00;;;9.70;99.90;;;;;;5036834;28;20469;-70
2022/04/24 07:38:17;;;;;;;7.00;4.17;;;9.80;99.90;;;;;;5044853;28;20453;-70
2022/04/24 07:41:05;;;;;;;5.57;3.70;;;9.90;99.90;;;;;;5038233;28;20535;-71
2022/04/24 07:43:54;;;;;;;4.13;3.73;;;10.00;99.90;;;;;;5048994;28;20480;-69
2022/04/24 07:46:42;;;;;;;5.20;4.70;;;10.00;99.90;;;;;;5040645;28;20447;-69
2022/04/24 07:49:33;;;;;;;8.23;4.80;;;10.10;99.90;;;;;;5046224;28;21006;-70
2022/04/24 07:52:21;;;;;;;5.73;4.03;;;10.20;99.90;;;;;;5039744;28;20449;-71
2022/04/24 07:55:12;;;;;;;4.43;4.03;;;10.20;99.90;;;;;;5035577;28;21100;-70
2022/04/24 07:58:01;;;;;;;4.03;3.63;;;10.30;99.90;;;;;;5043167;28;20494;-70
2022/04/24 08:00:49;;;;;;;5.33;4.00;;;10.30;99.90;;;;;;5048197;28;20486;-70
2022/04/24 08:03:38;;;;;;;4.63;4.00;;;10.50;99.90;;;;;;5046145;28;20494;-70
2022/04/24 08:06:27;;;;;;;4.63;3.70;;;10.50;99.90;;;;;;5040228;28;20554;-70
2022/04/24 08:09:15;;;;;;;4.50;4.03;;;10.60;99.90;;;;;;5043164;28;20481;-70
2022/04/24 08:12:05;;;;;;;7.90;4.33;;;10.60;99.90;;;;;;5040236;28;20474;-70
2022/04/24 08:14:53;;;;;;;4.30;3.90;;;10.70;99.90;;;;;;5048325;28;20513;-70
2022/04/24 08:17:41;;;;;;;5.17;3.70;;;10.80;99.90;;;;;;5051705;28;20527;-72
2022/04/24 08:20:30;;;;;;;5.63;4.13;;;10.80;99.90;;;;;;5054199;28;20477;-70
2022/04/24 08:23:20;;;;;;;4.53;4.10;;;10.90;99.90;;;;;;5048737;28;20556;-70
2022/04/24 08:26:10;;;;;;;4.33;3.20;;;10.90;99.90;;;;;;5049477;28;20465;-70
2022/04/24 08:28:58;;;;;;;4.57;4.13;;;11.00;99.90;;;;;;5059573;28;20549;-71
2022/04/24 08:31:46;;;;;;;4.60;3.70;;;11.10;99.90;;;;;;5052431;28;20480;-71
2022/04/24 08:34:34;;;;;;;4.40;4.00;;;11.20;99.90;;;;;;5043741;28;20485;-71
2022/04/24 08:37:23;;;;;;;5.40;3.77;;;11.20;99.90;;;;;;5051445;28;20462;-71
2022/04/24 08:40:15;;;;;;;5.23;3.37;;;11.30;99.90;;;;;;5044004;28;20505;-71
2022/04/24 08:43:03;;;;;;;5.47;3.63;;;11.30;99.90;;;;;;5049208;28;20490;-70
2022/04/24 08:45:53;;;;;;;3.33;3.03;;;11.40;99.90;;;;;;5046893;28;20474;-70
2022/04/24 08:48:43;;;;;;;4.47;3.47;;;11.50;99.90;;;;;;5047091;28;20461;-71
2022/04/24 08:51:33;;;;;;;4.70;3.40;;;11.60;99.90;;;;;;5056589;28;21048;-71
2022/04/24 08:54:22;;;;;;;4.90;3.90;;;11.70;99.90;;;;;;5046365;28;20555;-70
2022/04/24 08:57:12;;;;;;;3.77;3.37;;;11.70;99.90;;;;;;5056443;28;20451;-70
2022/04/24 09:00:02;;;;;;;4.87;4.40;;;11.70;99.90;;;;;;5044634;28;20998;-71
2022/04/24 09:03:09;;;;;;;5.00;3.80;;;11.80;99.90;;;;;;5042017;28;20855;-70
2022/04/24 09:05:57;;;;;;;4.20;3.80;;;11.80;99.90;;;;;;5048645;28;20460;-71
2022/04/24 09:08:46;;;;;;;3.37;3.07;;;11.90;99.90;;;;;;5053975;28;20458;-71
2022/04/24 09:11:49;;;;;;;4.23;3.60;;;11.90;99.90;;;;;;5048806;28;20510;-71
2022/04/24 09:14:39;;;;;;;4.07;3.67;;;11.90;99.90;;;;;;5041707;28;20640;-70
2022/04/24 09:17:30;;;;;;;3.47;3.17;;;12.00;99.90;;;;;;5054455;28;20561;-70
2022/04/24 09:20:20;;;;;;;8.57;4.10;;;12.10;99.90;;;;;;5046208;28;21136;-70
2022/04/24 09:23:08;;;;;;;4.10;3.67;;;12.10;99.90;;;;;;5052846;28;20497;-71
2022/04/24 09:25:57;;;;;;;4.20;3.70;;;12.00;99.90;;;;;;5052291;28;20465;-70
2022/04/24 09:28:45;;;;;;;4.20;3.80;;;12.10;99.90;;;;;;5053605;28;20451;-71
2022/04/24 09:31:35;;;;;;;4.33;3.50;;;12.10;99.90;;;;;;5051507;28;20482;-71
2022/04/24 09:34:29;;;;;;;5.60;3.77;;;12.20;99.90;;;;;;5050923;28;20466;-70
2022/04/24 09:37:18;;;;;;;5.47;3.87;;;12.20;99.90;;;;;;5048780;28;20512;-71
2022/04/24 09:40:07;;;;;;;4.27;3.87;;;12.30;99.90;;;;;;5058210;28;21413;-71
2022/04/24 09:42:56;;;;;;;3.90;3.60;;;12.40;99.90;;;;;;5055951;28;20576;-71
2022/04/24 09:45:48;;;;;;;6.50;4.20;;;12.40;99.90;;;;;;5048113;28;20531;-70
2022/04/24 09:48:39;;;;;;;4.33;3.93;;;12.40;99.90;;;;;;5048034;28;20542;-71
2022/04/24 09:51:28;;;;;;;4.30;3.90;;;12.30;99.90;;;;;;5049255;28;20454;-72
2022/04/24 09:54:18;;;;;;;5.17;3.80;;;12.30;99.90;;;;;;5053523;28;20588;-72
2022/04/24 09:57:08;;;;;;;10.20;4.60;;;12.30;99.90;;;;;;5050315;28;20485;-72
2022/04/24 09:59:57;;;;;;;4.37;3.97;;;12.30;99.90;;;;;;5050226;28;20525;-71
2022/04/24 10:02:46;;;;;;;5.17;3.83;;;12.40;99.90;;;;;;5049099;28;20520;-72
2022/04/24 10:05:38;;;;;;;4.20;3.80;;;12.40;99.90;;;;;;5048265;28;20461;-71
2022/04/24 10:08:26;;;;;;;4.23;3.87;;;12.50;99.90;;;;;;5043235;28;20500;-72
2022/04/24 10:11:15;;;;;;;4.63;4.00;;;12.50;99.90;;;;;;5041587;28;20451;-72
2022/04/24 10:14:08;;;;;;;3.77;3.47;;;12.60;99.90;;;;;;5055344;28;20478;-72
2022/04/24 10:17:43;;;;;;;5.27;3.70;;;12.70;99.90;;;;;;5049256;28;20450;-72
2022/04/24 10:20:47;;;;;;;3.90;3.57;;;12.80;99.90;;;;;;5040816;28;20490;-72
2022/04/24 10:23:37;;;;;;;3.63;3.33;;;12.80;99.90;;;;;;5050030;28;20990;-71
2022/04/24 10:26:25;;;;;;;4.33;3.80;;;12.90;99.90;;;;;;5040875;28;20829;-71
2022/04/24 10:29:14;;;;;;;6.70;3.97;;;12.80;99.90;;;;;;5043311;28;20856;-70
2022/04/24 10:32:03;;;;;;;4.77;3.90;;;12.70;99.90;;;;;;5044655;28;20446;-73
2022/04/24 10:34:51;;;;;;;3.50;3.20;;;12.80;99.90;;;;;;5047285;28;20476;-72
2022/04/24 10:37:41;;;;;;;3.67;3.37;;;12.80;99.90;;;;;;5044040;28;20498;-72
2022/04/24 10:40:29;;;;;;;3.83;3.40;;;12.90;99.90;;;;;;5050046;28;20578;-72
2022/04/24 10:43:22;;;;;;;4.40;3.93;;;13.00;99.90;;;;;;5048298;28;20802;-72
2022/04/24 10:46:18;;;;;;;4.43;3.60;;;13.10;99.90;;;;;;5037197;28;20490;-71
2022/04/24 10:49:09;;;;;;;3.70;3.40;;;13.10;99.90;;;;;;5047361;28;20481;-72
2022/04/24 10:52:03;;;;;;;4.40;3.90;;;13.20;99.90;;;;;;5046385;28;20458;-72
2022/04/24 10:55:06;;;;;;;6.87;3.87;;;13.30;99.90;;;;;;5043282;28;20845;-71
2022/04/24 10:57:57;;;;;;;6.30;3.83;;;13.40;99.90;;;;;;5044068;28;20817;-70
2022/04/24 11:00:45;;;;;;;5.23;3.80;;;13.50;99.90;;;;;;5044108;28;20468;-71
2022/04/24 11:03:40;;;;;;;5.73;4.47;;;13.30;99.90;;;;;;5040125;28;20565;-70
2022/04/24 11:06:28;;;;;;;4.67;3.80;;;13.30;99.90;;;;;;5049873;28;21309;-72
2022/04/24 11:09:20;;;;;;;4.13;3.73;;;13.40;99.90;;;;;;5051772;28;20478;-71
2022/04/24 11:12:11;;;;;;;7.13;3.90;;;13.40;99.90;;;;;;5048693;28;21020;-72
2022/04/24 11:15:03;;;;;;;4.60;4.03;;;13.10;99.90;;;;;;5045986;28;21043;-71
2022/04/24 11:17:52;;;;;;;4.23;3.83;;;13.10;99.90;;;;;;5047668;28;20586;-72
2022/04/24 11:20:42;;;;;;;4.20;3.80;;;13.10;99.90;;;;;;5043571;28;20497;-70
2022/04/24 11:23:32;;;;;;;5.47;3.90;;;13.00;99.90;;;;;;5033802;28;21041;-71
2022/04/24 11:26:24;;;;;;;4.50;4.10;;;12.80;99.90;;;;;;5039239;28;20540;-70
2022/04/24 11:29:13;;;;;;;6.73;4.20;;;12.80;99.90;;;;;;5045153;28;20493;-71
2022/04/24 11:32:04;;;;;;;4.53;3.97;;;12.70;99.90;;;;;;5039257;28;20512;-70
2022/04/24 11:34:52;;;;;;;5.60;4.53;;;12.70;99.90;;;;;;5046032;28;20493;-70
2022/04/24 11:37:44;;;;;;;7.80;4.43;;;12.70;99.90;;;;;;5041975;28;20454;-70
2022/04/24 11:40:35;;;;;;;4.83;4.33;;;12.80;99.90;;;;;;5041494;28;20474;-72
2022/04/24 11:43:40;;;;;;;6.63;4.63;;;13.00;99.90;;;;;;5042497;28;20477;-71
2022/04/24 11:53:06;;;;;;;6.73;4.93;;;13.40;99.90;;;;;;5040961;28;20548;-71
2022/04/24 11:56:04;;;;;;;5.70;4.73;;;13.20;99.90;;;;;;5044639;28;20450;-73
2022/04/24 11:58:52;;;;;;;4.50;4.10;;;13.10;99.90;;;;;;5041205;28;20604;-71
2022/04/24 12:01:44;;;;;;;4.53;4.10;;;13.10;99.90;;;;;;5047795;28;20560;-71
2022/04/24 12:04:38;;;;;;;5.30;4.80;;;12.90;99.90;;;;;;5038991;28;20486;-70
2022/04/24 12:07:31;;;;;;;7.93;4.93;;;12.90;99.90;;;;;;5039663;28;21028;-70
2022/04/24 12:10:24;;;;;;;5.13;4.67;;;13.10;99.90;;;;;;5027277;28;21054;-70
2022/04/24 12:13:13;;;;;;;5.93;4.50;;;13.40;99.90;;;;;;5034288;28;20475;-70
2022/04/24 12:16:02;;;;;;;5.50;4.47;;;13.60;99.90;;;;;;5048328;28;20478;-71
2022/04/24 12:18:57;;;;;;;5.80;5.30;;;13.80;99.90;;;;;;5039985;28;20470;-71
2022/04/24 12:21:48;;;;;;;6.93;5.10;;;13.80;99.90;;;;;;5051166;28;20460;-71
2022/04/24 12:24:44;;;;;;;5.10;4.20;;;13.70;99.90;;;;;;5052652;28;20484;-71
2022/04/24 12:27:32;;;;;;;5.30;4.60;;;13.60;99.90;;;;;;5051103;28;20548;-70
2022/04/24 12:30:21;;;;;;;8.83;6.50;;;13.60;99.90;;;;;;5048372;28;20531;-71
2022/04/24 12:33:10;;;;;;;5.90;5.30;;;13.40;99.90;;;;;;5046007;28;20544;-71
2022/04/24 12:36:09;;;;;;;5.23;4.73;;;13.40;99.90;;;;;;5053218;28;20577;-71
2022/04/24 12:38:58;;;;;;;8.70;6.60;;;13.50;99.90;;;;;;5049018;28;20496;-71
2022/04/24 12:41:53;;;;;;;10.93;9.83;;;13.60;99.90;;;;;;5049048;28;20494;-71
2022/04/24 12:44:41;;;;;;;11.37;10.43;;;13.60;99.90;;;;;;5021964;28;20524;-72
2022/04/24 12:47:30;;;;;;;10.67;9.70;;;13.60;99.90;;;;;;5032280;28;20462;-71
2022/04/24 12:50:18;;;;;;;7.30;6.60;;;13.50;99.90;;;;;;5048759;28;20481;-71
2022/04/24 12:53:08;;;;;;;9.80;7.10;;;13.40;99.90;;;;;;5027913;28;20513;-71
2022/04/24 12:55:56;;;;;;;12.50;9.40;;;13.30;99.90;;;;;;5042455;28;20450;-70
2022/04/24 12:58:44;;;;;;;14.57;13.07;;;13.10;99.90;;;;;;5037093;28;20510;-72
2022/04/24 13:01:33;;;;;;;6.33;5.73;;;12.90;99.90;;;;;;5036575;28;20452;-72
2022/04/24 13:04:21;;;;;;;6.70;5.70;;;12.70;99.90;;;;;;5032463;28;20490;-70
2022/04/24 13:07:11;;;;;;;6.97;4.83;;;12.60;99.90;;;;;;5028217;28;20463;-70
2022/04/24 13:10:00;;;;;;;9.17;6.33;;;12.70;99.90;;;;;;5030929;28;20560;-71
2022/04/24 13:12:51;;;;;;;9.63;7.60;;;12.80;99.90;;;;;;5035116;28;20612;-72
2022/04/24 13:15:39;;;;;;;7.13;5.27;;;13.10;99.90;;;;;;5035337;28;20653;-72
2022/04/24 13:18:26;;;;;;;7.20;5.90;;;13.40;99.90;;;;;;5031955;28;20454;-71
2022/04/24 13:21:15;;;;;;;6.97;5.27;;;13.60;99.90;;;;;;5037026;28;20470;-72
2022/04/24 13:24:03;;;;;;;6.67;5.57;;;13.60;99.90;;;;;;5025146;28;20568;-72
2022/04/24 13:26:54;;;;;;;6.60;5.57;;;13.60;99.90;;;;;;5035846;28;20465;-72
2022/04/24 13:29:42;;;;;;;7.60;5.60;;;13.50;99.90;;;;;;5043334;28;20479;-71
2022/04/24 13:32:30;;;;;;;8.43;5.70;;;13.70;99.90;;;;;;5028914;28;20475;-72
2022/04/24 13:35:18;;;;;;;8.50;5.10;;;13.90;99.90;;;;;;5046481;28;21085;-74
2022/04/24 13:38:19;;;;;;;6.40;5.67;;;14.00;99.90;;;;;;5038042;28;20492;-71
2022/04/24 13:41:07;;;;;;;9.20;6.83;;;14.00;99.90;;;;;;5035843;28;20582;-70
2022/04/24 13:43:59;;;;;;;6.20;5.23;;;14.20;99.90;;;;;;5025993;28;20479;-71
2022/04/24 13:46:48;;;;;;;10.17;8.60;;;14.30;99.90;;;;;;5042544;28;20462;-70
2022/04/24 13:49:36;;;;;;;9.07;7.17;;;14.50;99.90;;;;;;5049067;28;20470;-70
2022/04/24 13:52:24;;;;;;;7.90;5.87;;;14.50;99.90;;;;;;5040533;28;20550;-71
2022/04/24 13:55:13;;;;;;;5.70;5.17;;;14.40;99.90;;;;;;5025637;28;20944;-70
2022/04/24 13:58:03;;;;;;;8.27;7.10;;;14.30;99.90;;;;;;5038814;28;20459;-70
2022/04/24 14:00:54;;;;;;;7.80;6.83;;;14.20;99.90;;;;;;5035923;28;20485;-71
2022/04/24 14:03:42;;;;;;;6.83;5.80;;;14.10;99.90;;;;;;5033409;28;20547;-71
2022/04/24 14:06:31;;;;;;;8.37;6.20;;;14.00;99.90;;;;;;5041742;28;20463;-71
2022/04/24 14:09:19;;;;;;;7.23;5.73;;;13.70;99.90;;;;;;5037874;28;20470;-71
2022/04/24 14:12:10;;;;;;;7.43;5.57;;;13.60;99.90;;;;;;5044888;28;20450;-71
2022/04/24 14:14:58;;;;;;;6.00;5.30;;;13.40;99.90;;;;;;5033850;28;20605;-71
2022/04/24 14:17:47;;;;;;;6.40;5.80;;;13.40;99.90;;;;;;5039340;28;20454;-72
2022/04/24 14:20:35;;;;;;;6.53;5.93;;;13.40;99.90;;;;;;5045627;28;20486;-71
2022/04/24 14:23:39;;;;;;;6.57;5.87;;;13.60;99.90;;;;;;5042797;28;20501;-73
2022/04/24 14:26:27;;;;;;;6.87;6.10;;;13.90;99.90;;;;;;5033976;28;20635;-70
2022/04/24 14:29:15;;;;;;;8.20;6.37;;;14.00;99.90;;;;;;5035110;28;20979;-73
2022/04/24 14:32:06;;;;;;;7.80;5.33;;;13.90;99.90;;;;;;5033069;28;20973;-71
2022/04/24 14:34:57;;;;;;;6.17;5.57;;;13.70;99.90;;;;;;5048501;28;20485;-72
2022/04/24 14:37:45;;;;;;;9.73;6.47;;;13.70;99.90;;;;;;5039343;28;20444;-71
2022/04/24 14:40:37;;;;;;;8.73;6.13;;;13.60;99.90;;;;;;5034160;28;20501;-72
2022/04/24 14:43:25;;;;;;;7.00;6.30;;;13.50;99.90;;;;;;5022967;28;20490;-72
2022/04/24 14:55:46;;;;;;;7.77;6.00;;;13.30;99.90;;;;;;5033746;28;20450;-73
2022/04/24 14:58:35;;;;;;;7.60;6.60;;;13.40;99.90;;;;;;5035960;28;20463;-71
2022/04/24 15:01:24;;;;;;;6.50;5.90;;;13.50;99.90;;;;;;5025494;28;20457;-71
2022/04/24 15:04:13;;;;;;;6.67;5.97;;;13.50;99.90;;;;;;5036762;28;20478;-76